sensor_id;sensor_type;location;lat;lon;timestamp;P1;durP1;ratioP1;P2;durP2;ratioP2
52106;SDS011;38105;52.968;5.974;2023-05-07T00:01:25;21.92;;;19.33;;
52106;SDS011;38105;52.968;5.974;2023-05-07T00:03:51;24.60;;;20.60;;
52106;SDS011;38105;52.968;5.974;2023-05-07T00:06:16;24.40;;;18.63;;
52106;SDS011;38105;52.968;5.974;2023-05-07T00:08:42;25.10;;;19.15;;
52106;SDS011;38105;52.968;5.974;2023-05-07T00:11:08;26.13;;;20.35;;
52106;SDS011;38105;52.968;5.974;2023-05-07T00:13:33;26.60;;;19.98;;
52106;SDS011;38105;52.968;5.974;2023-05-07T00:16:01;23.27;;;19.23;;
52106;SDS011;38105;52.968;5.974;2023-05-07T00:18:27;25.88;;;21.38;;
52106;SDS011;38105;52.968;5.974;2023-05-07T00:20:53;27.20;;;20.08;;
52106;SDS011;38105;52.968;5.974;2023-05-07T00:23:19;25.42;;;19.83;;
52106;SDS011;38105;52.968;5.974;2023-05-07T00:25:44;25.23;;;20.08;;
52106;SDS011;38105;52.968;5.974;2023-05-07T00:28:10;30.90;;;21.98;;
52106;SDS011;38105;52.968;5.974;2023-05-07T00:30:35;25.50;;;21.27;;
52106;SDS011;38105;52.968;5.974;2023-05-07T00:33:01;29.65;;;22.52;;
52106;SDS011;38105;52.968;5.974;2023-05-07T00:35:28;27.38;;;21.23;;
52106;SDS011;38105;52.968;5.974;2023-05-07T00:37:54;27.35;;;22.88;;
52106;SDS011;38105;52.968;5.974;2023-05-07T00:40:20;28.80;;;22.50;;
52106;SDS011;38105;52.968;5.974;2023-05-07T00:42:45;33.40;;;23.17;;
52106;SDS011;38105;52.968;5.974;2023-05-07T00:45:13;29.42;;;22.55;;
52106;SDS011;38105;52.968;5.974;2023-05-07T00:47:39;32.10;;;22.33;;
52106;SDS011;38105;52.968;5.974;2023-05-07T00:50:05;30.25;;;24.02;;
52106;SDS011;38105;52.968;5.974;2023-05-07T00:52:32;28.80;;;23.45;;
52106;SDS011;38105;52.968;5.974;2023-05-07T00:54:57;29.38;;;23.73;;
52106;SDS011;38105;52.968;5.974;2023-05-07T00:57:29;33.30;;;24.88;;
52106;SDS011;38105;52.968;5.974;2023-05-07T00:59:57;29.17;;;22.55;;
52106;SDS011;38105;52.968;5.974;2023-05-07T01:02:23;28.50;;;22.67;;
52106;SDS011;38105;52.968;5.974;2023-05-07T01:04:48;31.42;;;22.23;;
52106;SDS011;38105;52.968;5.974;2023-05-07T01:07:14;28.88;;;21.15;;
52106;SDS011;38105;52.968;5.974;2023-05-07T01:09:40;29.55;;;22.67;;
52106;SDS011;38105;52.968;5.974;2023-05-07T01:12:06;25.85;;;21.33;;
52106;SDS011;38105;52.968;5.974;2023-05-07T01:14:32;30.27;;;22.63;;
52106;SDS011;38105;52.968;5.974;2023-05-07T01:16:58;29.63;;;22.40;;
52106;SDS011;38105;52.968;5.974;2023-05-07T01:19:24;27.25;;;21.52;;
52106;SDS011;38105;52.968;5.974;2023-05-07T01:21:49;29.67;;;21.27;;
52106;SDS011;38105;52.968;5.974;2023-05-07T01:24:17;30.20;;;20.73;;
52106;SDS011;38105;52.968;5.974;2023-05-07T01:26:43;27.52;;;20.02;;
52106;SDS011;38105;52.968;5.974;2023-05-07T01:29:09;24.70;;;20.52;;
52106;SDS011;38105;52.968;5.974;2023-05-07T01:31:35;26.70;;;20.95;;
52106;SDS011;38105;52.968;5.974;2023-05-07T01:34:03;24.73;;;19.10;;
52106;SDS011;38105;52.968;5.974;2023-05-07T01:36:29;24.60;;;18.40;;
52106;SDS011;38105;52.968;5.974;2023-05-07T01:38:57;22.63;;;18.38;;
52106;SDS011;38105;52.968;5.974;2023-05-07T01:41:24;25.48;;;19.52;;
52106;SDS011;38105;52.968;5.974;2023-05-07T01:43:50;23.60;;;18.80;;
52106;SDS011;38105;52.968;5.974;2023-05-07T01:46:17;24.48;;;19.15;;
52106;SDS011;38105;52.968;5.974;2023-05-07T01:48:44;23.40;;;18.90;;
52106;SDS011;38105;52.968;5.974;2023-05-07T01:51:11;22.08;;;16.92;;
52106;SDS011;38105;52.968;5.974;2023-05-07T01:53:40;19.55;;;16.42;;
52106;SDS011;38105;52.968;5.974;2023-05-07T01:56:06;23.92;;;18.10;;
52106;SDS011;38105;52.968;5.974;2023-05-07T01:58:32;20.40;;;17.70;;
52106;SDS011;38105;52.968;5.974;2023-05-07T02:00:58;19.75;;;16.77;;
52106;SDS011;38105;52.968;5.974;2023-05-07T02:03:25;21.92;;;17.38;;
52106;SDS011;38105;52.968;5.974;2023-05-07T02:05:50;21.60;;;17.17;;
52106;SDS011;38105;52.968;5.974;2023-05-07T02:08:16;21.35;;;17.55;;
52106;SDS011;38105;52.968;5.974;2023-05-07T02:10:42;20.45;;;17.33;;
52106;SDS011;38105;52.968;5.974;2023-05-07T02:13:07;20.02;;;16.38;;
52106;SDS011;38105;52.968;5.974;2023-05-07T02:15:33;23.58;;;18.75;;
52106;SDS011;38105;52.968;5.974;2023-05-07T02:18:08;23.10;;;18.77;;
52106;SDS011;38105;52.968;5.974;2023-05-07T02:20:34;27.05;;;20.45;;
52106;SDS011;38105;52.968;5.974;2023-05-07T02:23:00;24.65;;;19.95;;
52106;SDS011;38105;52.968;5.974;2023-05-07T02:25:25;28.73;;;22.00;;
52106;SDS011;38105;52.968;5.974;2023-05-07T02:27:51;23.67;;;21.10;;
52106;SDS011;38105;52.968;5.974;2023-05-07T02:30:17;30.45;;;22.45;;
52106;SDS011;38105;52.968;5.974;2023-05-07T02:32:43;26.42;;;22.75;;
52106;SDS011;38105;52.968;5.974;2023-05-07T02:35:09;25.67;;;22.77;;
52106;SDS011;38105;52.968;5.974;2023-05-07T02:37:35;30.17;;;22.85;;
52106;SDS011;38105;52.968;5.974;2023-05-07T02:40:01;33.70;;;25.02;;
52106;SDS011;38105;52.968;5.974;2023-05-07T02:42:29;31.10;;;23.58;;
52106;SDS011;38105;52.968;5.974;2023-05-07T02:44:54;29.92;;;23.65;;
52106;SDS011;38105;52.968;5.974;2023-05-07T02:47:20;30.98;;;23.77;;
52106;SDS011;38105;52.968;5.974;2023-05-07T02:49:45;32.25;;;25.23;;
52106;SDS011;38105;52.968;5.974;2023-05-07T02:52:11;35.38;;;26.83;;
52106;SDS011;38105;52.968;5.974;2023-05-07T02:54:37;32.00;;;26.15;;
52106;SDS011;38105;52.968;5.974;2023-05-07T02:57:02;30.38;;;25.95;;
52106;SDS011;38105;52.968;5.974;2023-05-07T02:59:28;31.88;;;27.02;;
52106;SDS011;38105;52.968;5.974;2023-05-07T03:01:53;34.75;;;28.10;;
52106;SDS011;38105;52.968;5.974;2023-05-07T03:04:19;28.77;;;25.63;;
52106;SDS011;38105;52.968;5.974;2023-05-07T03:06:45;36.45;;;27.67;;
52106;SDS011;38105;52.968;5.974;2023-05-07T03:09:11;37.45;;;29.70;;
52106;SDS011;38105;52.968;5.974;2023-05-07T03:11:37;36.30;;;27.95;;
52106;SDS011;38105;52.968;5.974;2023-05-07T03:14:02;36.22;;;28.77;;
52106;SDS011;38105;52.968;5.974;2023-05-07T03:16:28;35.70;;;29.40;;
52106;SDS011;38105;52.968;5.974;2023-05-07T03:18:53;34.13;;;28.48;;
52106;SDS011;38105;52.968;5.974;2023-05-07T03:21:19;36.28;;;29.50;;
52106;SDS011;38105;52.968;5.974;2023-05-07T03:23:45;31.77;;;27.30;;
52106;SDS011;38105;52.968;5.974;2023-05-07T03:26:10;34.13;;;30.05;;
52106;SDS011;38105;52.968;5.974;2023-05-07T03:28:36;37.92;;;30.35;;
52106;SDS011;38105;52.968;5.974;2023-05-07T03:31:02;34.00;;;28.45;;
52106;SDS011;38105;52.968;5.974;2023-05-07T03:33:28;32.53;;;29.02;;
52106;SDS011;38105;52.968;5.974;2023-05-07T03:35:53;33.90;;;29.92;;
52106;SDS011;38105;52.968;5.974;2023-05-07T03:38:19;38.65;;;29.35;;
52106;SDS011;38105;52.968;5.974;2023-05-07T03:40:45;34.78;;;29.83;;
52106;SDS011;38105;52.968;5.974;2023-05-07T03:43:10;41.55;;;30.33;;
52106;SDS011;38105;52.968;5.974;2023-05-07T03:45:36;34.72;;;30.23;;
52106;SDS011;38105;52.968;5.974;2023-05-07T03:48:02;36.15;;;29.75;;
52106;SDS011;38105;52.968;5.974;2023-05-07T03:50:27;35.97;;;30.48;;
52106;SDS011;38105;52.968;5.974;2023-05-07T03:52:53;37.92;;;30.67;;
52106;SDS011;38105;52.968;5.974;2023-05-07T03:55:19;36.60;;;29.38;;
52106;SDS011;38105;52.968;5.974;2023-05-07T03:57:45;38.50;;;31.52;;
52106;SDS011;38105;52.968;5.974;2023-05-07T04:00:10;37.67;;;31.70;;
52106;SDS011;38105;52.968;5.974;2023-05-07T04:02:36;38.33;;;32.42;;
52106;SDS011;38105;52.968;5.974;2023-05-07T04:05:02;39.13;;;31.55;;
52106;SDS011;38105;52.968;5.974;2023-05-07T04:07:28;40.58;;;31.90;;
52106;SDS011;38105;52.968;5.974;2023-05-07T04:09:53;37.17;;;31.60;;
52106;SDS011;38105;52.968;5.974;2023-05-07T04:12:19;40.15;;;32.90;;
52106;SDS011;38105;52.968;5.974;2023-05-07T04:14:45;40.78;;;31.38;;
52106;SDS011;38105;52.968;5.974;2023-05-07T04:17:10;38.58;;;31.63;;
52106;SDS011;38105;52.968;5.974;2023-05-07T04:19:36;40.63;;;33.72;;
52106;SDS011;38105;52.968;5.974;2023-05-07T04:22:02;42.30;;;33.10;;
52106;SDS011;38105;52.968;5.974;2023-05-07T04:24:30;37.95;;;31.75;;
52106;SDS011;38105;52.968;5.974;2023-05-07T04:26:58;44.20;;;34.92;;
52106;SDS011;38105;52.968;5.974;2023-05-07T04:29:23;42.45;;;34.65;;
52106;SDS011;38105;52.968;5.974;2023-05-07T04:31:49;44.83;;;32.70;;
52106;SDS011;38105;52.968;5.974;2023-05-07T04:34:15;45.85;;;35.25;;
52106;SDS011;38105;52.968;5.974;2023-05-07T04:36:41;42.78;;;34.33;;
52106;SDS011;38105;52.968;5.974;2023-05-07T04:39:07;44.58;;;36.42;;
52106;SDS011;38105;52.968;5.974;2023-05-07T04:41:34;44.70;;;34.90;;
52106;SDS011;38105;52.968;5.974;2023-05-07T04:44:01;41.97;;;34.00;;
52106;SDS011;38105;52.968;5.974;2023-05-07T04:46:29;43.50;;;35.25;;
52106;SDS011;38105;52.968;5.974;2023-05-07T04:48:54;48.15;;;36.90;;
52106;SDS011;38105;52.968;5.974;2023-05-07T04:51:20;42.30;;;34.50;;
52106;SDS011;38105;52.968;5.974;2023-05-07T04:53:46;43.83;;;36.75;;
52106;SDS011;38105;52.968;5.974;2023-05-07T04:56:11;49.78;;;38.85;;
52106;SDS011;38105;52.968;5.974;2023-05-07T04:58:37;49.28;;;35.58;;
52106;SDS011;38105;52.968;5.974;2023-05-07T05:01:03;45.92;;;37.47;;
52106;SDS011;38105;52.968;5.974;2023-05-07T05:03:29;52.25;;;36.75;;
52106;SDS011;38105;52.968;5.974;2023-05-07T05:05:55;48.08;;;37.00;;
52106;SDS011;38105;52.968;5.974;2023-05-07T05:08:22;48.90;;;37.65;;
52106;SDS011;38105;52.968;5.974;2023-05-07T05:10:47;50.75;;;38.58;;
52106;SDS011;38105;52.968;5.974;2023-05-07T05:13:14;47.20;;;38.35;;
52106;SDS011;38105;52.968;5.974;2023-05-07T05:15:40;49.55;;;38.20;;
52106;SDS011;38105;52.968;5.974;2023-05-07T05:18:06;48.97;;;38.20;;
52106;SDS011;38105;52.968;5.974;2023-05-07T05:20:31;49.40;;;39.00;;
52106;SDS011;38105;52.968;5.974;2023-05-07T05:22:57;48.88;;;38.80;;
52106;SDS011;38105;52.968;5.974;2023-05-07T05:25:22;49.38;;;37.67;;
52106;SDS011;38105;52.968;5.974;2023-05-07T05:27:48;49.95;;;39.15;;
52106;SDS011;38105;52.968;5.974;2023-05-07T05:30:14;47.58;;;38.10;;
52106;SDS011;38105;52.968;5.974;2023-05-07T05:32:39;49.60;;;38.30;;
52106;SDS011;38105;52.968;5.974;2023-05-07T05:35:05;48.83;;;38.80;;
52106;SDS011;38105;52.968;5.974;2023-05-07T05:37:31;51.13;;;38.70;;
52106;SDS011;38105;52.968;5.974;2023-05-07T05:39:56;53.13;;;38.78;;
52106;SDS011;38105;52.968;5.974;2023-05-07T05:42:22;52.50;;;40.05;;
52106;SDS011;38105;52.968;5.974;2023-05-07T05:44:48;51.53;;;39.90;;
52106;SDS011;38105;52.968;5.974;2023-05-07T05:47:14;53.90;;;40.78;;
52106;SDS011;38105;52.968;5.974;2023-05-07T05:49:39;47.30;;;38.03;;
52106;SDS011;38105;52.968;5.974;2023-05-07T05:52:05;50.33;;;38.78;;
52106;SDS011;38105;52.968;5.974;2023-05-07T05:54:31;51.95;;;38.60;;
52106;SDS011;38105;52.968;5.974;2023-05-07T05:56:56;53.72;;;39.70;;
52106;SDS011;38105;52.968;5.974;2023-05-07T05:59:22;49.70;;;38.50;;
52106;SDS011;38105;52.968;5.974;2023-05-07T06:01:48;50.80;;;39.58;;
52106;SDS011;38105;52.968;5.974;2023-05-07T06:04:14;54.20;;;41.60;;
52106;SDS011;38105;52.968;5.974;2023-05-07T06:06:39;46.47;;;37.92;;
52106;SDS011;38105;52.968;5.974;2023-05-07T06:09:05;50.53;;;39.15;;
52106;SDS011;38105;52.968;5.974;2023-05-07T06:11:31;47.25;;;39.10;;
52106;SDS011;38105;52.968;5.974;2023-05-07T06:13:57;48.88;;;37.78;;
52106;SDS011;38105;52.968;5.974;2023-05-07T06:16:24;51.53;;;40.58;;
52106;SDS011;38105;52.968;5.974;2023-05-07T06:18:50;49.33;;;36.97;;
52106;SDS011;38105;52.968;5.974;2023-05-07T06:21:15;50.22;;;38.47;;
52106;SDS011;38105;52.968;5.974;2023-05-07T06:23:41;45.65;;;35.75;;
52106;SDS011;38105;52.968;5.974;2023-05-07T06:26:07;46.92;;;36.83;;
52106;SDS011;38105;52.968;5.974;2023-05-07T06:28:32;47.90;;;36.15;;
52106;SDS011;38105;52.968;5.974;2023-05-07T06:31:10;41.38;;;34.95;;
52106;SDS011;38105;52.968;5.974;2023-05-07T06:33:40;41.25;;;33.63;;
52106;SDS011;38105;52.968;5.974;2023-05-07T06:36:06;42.35;;;33.17;;
52106;SDS011;38105;52.968;5.974;2023-05-07T06:38:31;42.00;;;33.20;;
52106;SDS011;38105;52.968;5.974;2023-05-07T06:40:57;36.28;;;32.15;;
52106;SDS011;38105;52.968;5.974;2023-05-07T06:43:23;39.22;;;31.50;;
52106;SDS011;38105;52.968;5.974;2023-05-07T06:45:48;36.65;;;30.00;;
52106;SDS011;38105;52.968;5.974;2023-05-07T06:48:14;36.42;;;30.15;;
52106;SDS011;38105;52.968;5.974;2023-05-07T06:50:39;33.45;;;29.08;;
52106;SDS011;38105;52.968;5.974;2023-05-07T06:53:06;34.38;;;28.70;;
52106;SDS011;38105;52.968;5.974;2023-05-07T06:55:32;31.90;;;28.00;;
52106;SDS011;38105;52.968;5.974;2023-05-07T06:57:58;29.75;;;26.50;;
52106;SDS011;38105;52.968;5.974;2023-05-07T07:00:26;31.77;;;26.95;;
52106;SDS011;38105;52.968;5.974;2023-05-07T07:02:52;31.23;;;27.70;;
52106;SDS011;38105;52.968;5.974;2023-05-07T07:05:18;34.08;;;27.50;;
52106;SDS011;38105;52.968;5.974;2023-05-07T07:07:44;31.55;;;27.45;;
52106;SDS011;38105;52.968;5.974;2023-05-07T07:10:10;30.33;;;26.98;;
52106;SDS011;38105;52.968;5.974;2023-05-07T07:12:35;31.65;;;26.80;;
52106;SDS011;38105;52.968;5.974;2023-05-07T07:15:01;30.95;;;27.63;;
52106;SDS011;38105;52.968;5.974;2023-05-07T07:17:27;32.42;;;27.48;;
52106;SDS011;38105;52.968;5.974;2023-05-07T07:19:53;31.65;;;27.17;;
52106;SDS011;38105;52.968;5.974;2023-05-07T07:22:19;31.63;;;28.10;;
52106;SDS011;38105;52.968;5.974;2023-05-07T07:24:44;31.42;;;26.23;;
52106;SDS011;38105;52.968;5.974;2023-05-07T07:27:10;30.48;;;26.58;;
52106;SDS011;38105;52.968;5.974;2023-05-07T07:29:35;30.20;;;26.70;;
52106;SDS011;38105;52.968;5.974;2023-05-07T07:32:01;30.17;;;25.92;;
52106;SDS011;38105;52.968;5.974;2023-05-07T07:34:27;29.40;;;26.23;;
52106;SDS011;38105;52.968;5.974;2023-05-07T07:36:52;29.08;;;26.00;;
52106;SDS011;38105;52.968;5.974;2023-05-07T07:39:18;31.63;;;25.33;;
52106;SDS011;38105;52.968;5.974;2023-05-07T07:41:44;26.60;;;23.73;;
52106;SDS011;38105;52.968;5.974;2023-05-07T07:44:09;28.40;;;24.80;;
52106;SDS011;38105;52.968;5.974;2023-05-07T07:46:37;27.65;;;24.55;;
52106;SDS011;38105;52.968;5.974;2023-05-07T07:49:03;28.90;;;25.83;;
52106;SDS011;38105;52.968;5.974;2023-05-07T07:51:29;28.38;;;23.90;;
52106;SDS011;38105;52.968;5.974;2023-05-07T07:53:55;27.90;;;23.75;;
52106;SDS011;38105;52.968;5.974;2023-05-07T07:56:22;29.75;;;23.90;;
52106;SDS011;38105;52.968;5.974;2023-05-07T07:58:48;25.23;;;22.52;;
52106;SDS011;38105;52.968;5.974;2023-05-07T08:01:14;26.42;;;23.50;;
52106;SDS011;38105;52.968;5.974;2023-05-07T08:03:41;25.23;;;22.63;;
52106;SDS011;38105;52.968;5.974;2023-05-07T08:06:07;29.27;;;24.45;;
52106;SDS011;38105;52.968;5.974;2023-05-07T08:08:32;27.17;;;24.15;;
52106;SDS011;38105;52.968;5.974;2023-05-07T08:10:58;25.33;;;22.55;;
52106;SDS011;38105;52.968;5.974;2023-05-07T08:13:24;25.83;;;23.02;;
52106;SDS011;38105;52.968;5.974;2023-05-07T08:15:49;24.17;;;21.60;;
52106;SDS011;38105;52.968;5.974;2023-05-07T08:18:15;25.67;;;22.55;;
52106;SDS011;38105;52.968;5.974;2023-05-07T08:20:41;23.45;;;21.02;;
52106;SDS011;38105;52.968;5.974;2023-05-07T08:23:07;25.02;;;21.23;;
52106;SDS011;38105;52.968;5.974;2023-05-07T08:25:33;24.42;;;21.92;;
52106;SDS011;38105;52.968;5.974;2023-05-07T08:28:00;25.83;;;22.92;;
52106;SDS011;38105;52.968;5.974;2023-05-07T08:30:25;24.63;;;22.08;;
52106;SDS011;38105;52.968;5.974;2023-05-07T08:32:51;25.00;;;22.33;;
52106;SDS011;38105;52.968;5.974;2023-05-07T08:35:17;26.45;;;23.20;;
52106;SDS011;38105;52.968;5.974;2023-05-07T08:37:43;24.27;;;21.70;;
52106;SDS011;38105;52.968;5.974;2023-05-07T08:40:09;25.58;;;22.85;;
52106;SDS011;38105;52.968;5.974;2023-05-07T08:42:35;24.92;;;22.13;;
52106;SDS011;38105;52.968;5.974;2023-05-07T08:45:03;23.95;;;21.50;;
52106;SDS011;38105;52.968;5.974;2023-05-07T08:47:34;23.85;;;21.35;;
52106;SDS011;38105;52.968;5.974;2023-05-07T08:50:05;24.27;;;21.67;;
52106;SDS011;38105;52.968;5.974;2023-05-07T08:52:31;25.08;;;22.38;;
52106;SDS011;38105;52.968;5.974;2023-05-07T08:54:57;25.17;;;21.63;;
52106;SDS011;38105;52.968;5.974;2023-05-07T08:57:24;26.40;;;22.25;;
52106;SDS011;38105;52.968;5.974;2023-05-07T08:59:49;24.00;;;21.25;;
52106;SDS011;38105;52.968;5.974;2023-05-07T09:02:15;24.83;;;22.23;;
52106;SDS011;38105;52.968;5.974;2023-05-07T09:04:41;24.13;;;21.35;;
52106;SDS011;38105;52.968;5.974;2023-05-07T09:07:07;25.05;;;22.42;;
52106;SDS011;38105;52.968;5.974;2023-05-07T09:09:33;25.52;;;22.70;;
52106;SDS011;38105;52.968;5.974;2023-05-07T09:11:59;26.40;;;22.88;;
52106;SDS011;38105;52.968;5.974;2023-05-07T09:14:25;24.60;;;22.05;;
52106;SDS011;38105;52.968;5.974;2023-05-07T09:16:54;23.38;;;21.05;;
52106;SDS011;38105;52.968;5.974;2023-05-07T09:19:23;26.10;;;21.73;;
52106;SDS011;38105;52.968;5.974;2023-05-07T09:21:49;23.30;;;20.83;;
52106;SDS011;38105;52.968;5.974;2023-05-07T09:26:48;23.55;;;21.05;;
52106;SDS011;38105;52.968;5.974;2023-05-07T09:29:15;23.15;;;20.85;;
52106;SDS011;38105;52.968;5.974;2023-05-07T09:31:41;25.25;;;21.60;;
52106;SDS011;38105;52.968;5.974;2023-05-07T09:34:07;23.88;;;21.27;;
52106;SDS011;38105;52.968;5.974;2023-05-07T09:36:33;23.42;;;20.92;;
52106;SDS011;38105;52.968;5.974;2023-05-07T09:38:59;26.67;;;22.38;;
52106;SDS011;38105;52.968;5.974;2023-05-07T09:41:25;25.13;;;21.38;;
52106;SDS011;38105;52.968;5.974;2023-05-07T09:43:54;23.60;;;21.10;;
52106;SDS011;38105;52.968;5.974;2023-05-07T09:46:22;23.98;;;21.45;;
52106;SDS011;38105;52.968;5.974;2023-05-07T09:48:56;25.33;;;22.67;;
52106;SDS011;38105;52.968;5.974;2023-05-07T09:51:39;26.33;;;22.92;;
52106;SDS011;38105;52.968;5.974;2023-05-07T09:54:10;25.52;;;22.77;;
52106;SDS011;38105;52.968;5.974;2023-05-07T09:56:36;24.50;;;22.00;;
52106;SDS011;38105;52.968;5.974;2023-05-07T09:59:03;25.50;;;22.52;;
52106;SDS011;38105;52.968;5.974;2023-05-07T10:01:31;25.00;;;22.27;;
52106;SDS011;38105;52.968;5.974;2023-05-07T10:03:57;26.05;;;23.25;;
52106;SDS011;38105;52.968;5.974;2023-05-07T10:06:24;25.38;;;22.00;;
52106;SDS011;38105;52.968;5.974;2023-05-07T10:08:52;26.67;;;23.80;;
52106;SDS011;38105;52.968;5.974;2023-05-07T10:11:19;27.50;;;24.55;;
52106;SDS011;38105;52.968;5.974;2023-05-07T10:13:46;25.02;;;22.52;;
52106;SDS011;38105;52.968;5.974;2023-05-07T10:16:13;24.67;;;21.70;;
52106;SDS011;38105;52.968;5.974;2023-05-07T10:18:42;25.35;;;22.67;;
52106;SDS011;38105;52.968;5.974;2023-05-07T10:21:16;25.88;;;23.17;;
52106;SDS011;38105;52.968;5.974;2023-05-07T10:23:48;26.85;;;23.70;;
52106;SDS011;38105;52.968;5.974;2023-05-07T10:26:15;25.10;;;22.40;;
52106;SDS011;38105;52.968;5.974;2023-05-07T10:28:44;24.75;;;22.15;;
52106;SDS011;38105;52.968;5.974;2023-05-07T10:31:27;26.48;;;23.60;;
52106;SDS011;38105;52.968;5.974;2023-05-07T10:33:58;25.50;;;22.35;;
52106;SDS011;38105;52.968;5.974;2023-05-07T10:36:25;25.50;;;22.77;;
52106;SDS011;38105;52.968;5.974;2023-05-07T10:38:52;26.08;;;23.35;;
52106;SDS011;38105;52.968;5.974;2023-05-07T10:41:18;24.25;;;21.65;;
52106;SDS011;38105;52.968;5.974;2023-05-07T10:43:46;26.60;;;23.65;;
52106;SDS011;38105;52.968;5.974;2023-05-07T10:49:25;26.33;;;23.52;;
52106;SDS011;38105;52.968;5.974;2023-05-07T10:51:28;26.85;;;24.10;;
52106;SDS011;38105;52.968;5.974;2023-05-07T10:54:37;27.23;;;24.33;;
52106;SDS011;38105;52.968;5.974;2023-05-07T10:56:44;27.08;;;24.05;;
52106;SDS011;38105;52.968;5.974;2023-05-07T11:01:56;25.27;;;22.38;;
52106;SDS011;38105;52.968;5.974;2023-05-07T11:04:23;26.65;;;23.85;;
52106;SDS011;38105;52.968;5.974;2023-05-07T11:15:04;29.08;;;24.77;;
52106;SDS011;38105;52.968;5.974;2023-05-07T11:17:32;27.20;;;24.27;;
52106;SDS011;38105;52.968;5.974;2023-05-07T11:19:59;26.23;;;23.45;;
52106;SDS011;38105;52.968;5.974;2023-05-07T11:25:04;26.35;;;23.55;;
52106;SDS011;38105;52.968;5.974;2023-05-07T11:27:31;25.85;;;23.13;;
52106;SDS011;38105;52.968;5.974;2023-05-07T11:29:57;25.80;;;23.10;;
52106;SDS011;38105;52.968;5.974;2023-05-07T11:32:27;24.70;;;22.00;;
52106;SDS011;38105;52.968;5.974;2023-05-07T11:34:54;25.40;;;22.70;;
52106;SDS011;38105;52.968;5.974;2023-05-07T11:37:21;25.60;;;22.63;;
52106;SDS011;38105;52.968;5.974;2023-05-07T11:39:48;23.45;;;21.05;;
52106;SDS011;38105;52.968;5.974;2023-05-07T11:42:30;23.73;;;21.23;;
52106;SDS011;38105;52.968;5.974;2023-05-07T11:44:57;25.05;;;22.15;;
52106;SDS011;38105;52.968;5.974;2023-05-07T11:47:23;24.40;;;21.80;;
52106;SDS011;38105;52.968;5.974;2023-05-07T11:49:50;26.38;;;22.38;;
52106;SDS011;38105;52.968;5.974;2023-05-07T11:52:17;24.77;;;22.25;;
52106;SDS011;38105;52.968;5.974;2023-05-07T11:54:50;24.30;;;21.73;;
52106;SDS011;38105;52.968;5.974;2023-05-07T11:57:16;22.73;;;20.25;;
52106;SDS011;38105;52.968;5.974;2023-05-07T11:59:42;23.30;;;21.00;;
52106;SDS011;38105;52.968;5.974;2023-05-07T12:02:13;24.77;;;22.17;;
52106;SDS011;38105;52.968;5.974;2023-05-07T12:04:42;23.13;;;20.67;;
52106;SDS011;38105;52.968;5.974;2023-05-07T12:07:12;22.45;;;20.23;;
52106;SDS011;38105;52.968;5.974;2023-05-07T12:09:39;26.65;;;20.40;;
52106;SDS011;38105;52.968;5.974;2023-05-07T12:12:08;21.88;;;19.58;;
52106;SDS011;38105;52.968;5.974;2023-05-07T12:14:37;21.90;;;19.05;;
52106;SDS011;38105;52.968;5.974;2023-05-07T12:17:10;20.45;;;18.27;;
52106;SDS011;38105;52.968;5.974;2023-05-07T12:19:37;20.70;;;18.60;;
52106;SDS011;38105;52.968;5.974;2023-05-07T12:22:04;18.27;;;16.38;;
52106;SDS011;38105;52.968;5.974;2023-05-07T12:24:46;20.15;;;17.95;;
52106;SDS011;38105;52.968;5.974;2023-05-07T12:27:16;19.17;;;17.27;;
52106;SDS011;38105;52.968;5.974;2023-05-07T12:29:48;23.45;;;17.95;;
52106;SDS011;38105;52.968;5.974;2023-05-07T12:34:41;18.67;;;16.88;;
52106;SDS011;38105;52.968;5.974;2023-05-07T12:37:07;18.17;;;16.25;;
52106;SDS011;38105;52.968;5.974;2023-05-07T12:39:33;17.73;;;15.90;;
52106;SDS011;38105;52.968;5.974;2023-05-07T12:41:59;18.48;;;16.60;;
52106;SDS011;38105;52.968;5.974;2023-05-07T12:44:25;18.88;;;16.98;;
52106;SDS011;38105;52.968;5.974;2023-05-07T12:46:55;19.70;;;17.42;;
52106;SDS011;38105;52.968;5.974;2023-05-07T12:49:20;18.63;;;16.63;;
52106;SDS011;38105;52.968;5.974;2023-05-07T12:51:47;18.98;;;17.15;;
52106;SDS011;38105;52.968;5.974;2023-05-07T12:54:13;21.10;;;18.98;;
52106;SDS011;38105;52.968;5.974;2023-05-07T12:56:59;20.27;;;18.17;;
52106;SDS011;38105;52.968;5.974;2023-05-07T12:59:39;21.13;;;18.88;;
52106;SDS011;38105;52.968;5.974;2023-05-07T13:02:05;19.13;;;17.05;;
52106;SDS011;38105;52.968;5.974;2023-05-07T13:04:31;19.20;;;16.92;;
52106;SDS011;38105;52.968;5.974;2023-05-07T13:06:58;19.40;;;17.48;;
52106;SDS011;38105;52.968;5.974;2023-05-07T13:09:24;18.77;;;16.88;;
52106;SDS011;38105;52.968;5.974;2023-05-07T13:11:50;19.98;;;17.67;;
52106;SDS011;38105;52.968;5.974;2023-05-07T13:14:16;18.60;;;16.20;;
52106;SDS011;38105;52.968;5.974;2023-05-07T13:16:41;19.48;;;17.15;;
52106;SDS011;38105;52.968;5.974;2023-05-07T13:19:07;18.25;;;16.45;;
52106;SDS011;38105;52.968;5.974;2023-05-07T13:21:33;18.00;;;16.23;;
52106;SDS011;38105;52.968;5.974;2023-05-07T13:23:58;19.83;;;15.70;;
52106;SDS011;38105;52.968;5.974;2023-05-07T13:26:24;18.33;;;16.42;;
52106;SDS011;38105;52.968;5.974;2023-05-07T13:28:51;19.45;;;17.35;;
52106;SDS011;38105;52.968;5.974;2023-05-07T13:31:18;18.17;;;16.38;;
52106;SDS011;38105;52.968;5.974;2023-05-07T13:33:43;18.23;;;16.40;;
52106;SDS011;38105;52.968;5.974;2023-05-07T13:36:09;18.10;;;15.65;;
52106;SDS011;38105;52.968;5.974;2023-05-07T13:38:35;17.38;;;15.65;;
52106;SDS011;38105;52.968;5.974;2023-05-07T13:41:01;17.70;;;15.77;;
52106;SDS011;38105;52.968;5.974;2023-05-07T13:43:26;18.58;;;16.80;;
52106;SDS011;38105;52.968;5.974;2023-05-07T13:45:52;17.17;;;15.35;;
52106;SDS011;38105;52.968;5.974;2023-05-07T13:48:17;15.95;;;14.40;;
52106;SDS011;38105;52.968;5.974;2023-05-07T13:50:43;19.30;;;16.30;;
52106;SDS011;38105;52.968;5.974;2023-05-07T13:53:09;17.88;;;16.08;;
52106;SDS011;38105;52.968;5.974;2023-05-07T13:55:35;17.63;;;15.93;;
52106;SDS011;38105;52.968;5.974;2023-05-07T13:58:01;17.63;;;15.38;;
52106;SDS011;38105;52.968;5.974;2023-05-07T14:00:28;15.15;;;13.38;;
52106;SDS011;38105;52.968;5.974;2023-05-07T14:02:54;17.15;;;14.93;;
52106;SDS011;38105;52.968;5.974;2023-05-07T14:05:21;16.88;;;14.95;;
52106;SDS011;38105;52.968;5.974;2023-05-07T14:07:51;16.67;;;14.98;;
52106;SDS011;38105;52.968;5.974;2023-05-07T14:10:18;17.02;;;15.43;;
52106;SDS011;38105;52.968;5.974;2023-05-07T14:12:45;18.73;;;16.52;;
52106;SDS011;38105;52.968;5.974;2023-05-07T14:15:11;18.35;;;16.45;;
52106;SDS011;38105;52.968;5.974;2023-05-07T14:17:37;18.15;;;14.52;;
52106;SDS011;38105;52.968;5.974;2023-05-07T14:20:03;15.57;;;13.13;;
52106;SDS011;38105;52.968;5.974;2023-05-07T14:22:31;15.43;;;13.82;;
52106;SDS011;38105;52.968;5.974;2023-05-07T14:24:56;14.07;;;12.57;;
52106;SDS011;38105;52.968;5.974;2023-05-07T14:27:22;14.07;;;12.68;;
52106;SDS011;38105;52.968;5.974;2023-05-07T14:29:48;13.00;;;11.55;;
52106;SDS011;38105;52.968;5.974;2023-05-07T14:32:16;14.13;;;12.73;;
52106;SDS011;38105;52.968;5.974;2023-05-07T14:34:43;14.82;;;12.38;;
52106;SDS011;38105;52.968;5.974;2023-05-07T14:37:09;14.52;;;12.65;;
52106;SDS011;38105;52.968;5.974;2023-05-07T14:39:35;15.15;;;12.95;;